createdAt,value
2023-02-13T00:01:15.472Z,100733.31
2023-02-13T00:03:17.021Z,100731.13
2023-02-13T00:05:18.787Z,100731.47
2023-02-13T00:07:20.327Z,100729.28
2023-02-13T00:09:21.990Z,100725.22
2023-02-13T00:11:23.604Z,100729.97
2023-02-13T00:13:25.231Z,100731.34
2023-02-13T00:15:27.040Z,100729.97
2023-02-13T00:17:28.809Z,100720.53
2023-02-13T00:19:30.508Z,100722.72
2023-02-13T00:21:32.219Z,100718.69
2023-02-13T00:23:36.242Z,100720.22
2023-02-13T00:25:38.867Z,100722.44
2023-02-13T00:27:40.290Z,100722.94
2023-02-13T00:29:49.270Z,100722.59
2023-02-13T00:31:51.098Z,100716.84
2023-02-13T00:33:52.679Z,100721.78
2023-02-13T00:36:13.047Z,100716.19
2023-02-13T00:38:14.454Z,100722.78
2023-02-13T00:40:16.132Z,100725.16
2023-02-13T00:42:24.050Z,100717.56
2023-02-13T00:44:25.650Z,100728.72
2023-02-13T00:46:29.332Z,100722.97
2023-02-13T00:48:33.638Z,100718.91
2023-02-13T00:50:35.418Z,100723.31
2023-02-13T00:52:40.663Z,100736.16
2023-02-13T00:54:42.344Z,100724.97
2023-02-13T00:56:44.065Z,100727.34
2023-02-13T00:58:48.044Z,100722.13
2023-02-13T01:00:49.855Z,100734.13
2023-02-13T01:02:51.384Z,100732.75
2023-02-13T01:04:53.132Z,100732.41
2023-02-13T01:06:54.871Z,100729.16
2023-02-13T01:08:56.482Z,100727.81
2023-02-13T01:11:00.796Z,100727.28
2023-02-13T01:13:02.407Z,100729.47
2023-02-13T01:15:05.949Z,100725.94
2023-02-13T01:17:08.208Z,100731.69
2023-02-13T01:19:15.819Z,100738.41
2023-02-13T01:21:20.184Z,100730.47
2023-02-13T01:23:21.602Z,100743.47
2023-02-13T01:25:23.679Z,100735.72
2023-02-13T01:27:25.593Z,100733.34
2023-02-13T01:29:27.218Z,100732.47
2023-02-13T01:31:29.147Z,100728.06
2023-02-13T01:33:30.697Z,100723.69
2023-02-13T01:35:32.340Z,100723.03
2023-02-13T01:37:34.096Z,100715.22
2023-02-13T01:39:35.883Z,100721.63
2023-02-13T01:41:38.044Z,100726.53
2023-02-13T01:43:59.783Z,100725.16
2023-02-13T01:46:02.489Z,100734.31
2023-02-13T01:48:13.496Z,100730.22
2023-02-13T01:50:36.028Z,100727.81
2023-02-13T01:52:42.386Z,100720.75
2023-02-13T01:54:44.622Z,100721.75
2023-02-13T01:56:51.779Z,100723.09
2023-02-13T01:58:59.789Z,100726.78
2023-02-13T02:01:02.958Z,100726.78
2023-02-13T02:03:16.135Z,100730.00
2023-02-13T02:05:21.850Z,100732.69
2023-02-13T02:07:26.311Z,100721.34
2023-02-13T02:09:32.667Z,100726.94
2023-02-13T02:11:52.756Z,100720.84
2023-02-13T02:13:56.032Z,100712.75
2023-02-13T02:16:09.609Z,100708.50
2023-02-13T02:18:23.259Z,100713.19
2023-02-13T02:21:01.417Z,100711.53
2023-02-13T02:23:25.117Z,100716.94
2023-02-13T02:25:46.387Z,100708.16
2023-02-13T02:28:02.624Z,100719.41
2023-02-13T02:30:27.473Z,100722.81
2023-02-13T02:32:44.809Z,100718.72
2023-02-13T02:34:58.441Z,100712.16
2023-02-13T02:37:11.864Z,100713.31
2023-02-13T02:39:31.921Z,100721.06
2023-02-13T02:41:46.526Z,100721.94
2023-02-13T02:44:20.348Z,100713.81
2023-02-13T02:46:36.225Z,100715.53
2023-02-13T02:49:12.689Z,100721.06
2023-02-13T02:51:24.948Z,100729.72
2023-02-13T02:53:52.447Z,100725.16
2023-02-13T02:55:54.129Z,100722.28
2023-02-13T02:58:28.808Z,100723.28
2023-02-13T03:00:55.342Z,100723.28
2023-02-13T03:03:15.949Z,100728.00
2023-02-13T03:05:43.670Z,100722.78
2023-02-13T03:07:45.222Z,100713.66
2023-02-13T03:10:16.635Z,100715.53
2023-02-13T03:12:43.253Z,100718.38
2023-02-13T03:14:44.971Z,100731.03
2023-02-13T03:17:08.135Z,100725.47
2023-02-13T03:19:41.607Z,100724.81
2023-02-13T03:22:15.177Z,100729.66
2023-02-13T03:24:25.986Z,100725.13
2023-02-13T03:26:50.534Z,100731.69
2023-02-13T03:29:58.953Z,100727.13
2023-02-13T03:32:17.565Z,100717.31
2023-02-13T03:34:25.819Z,100726.59
2023-02-13T03:37:09.763Z,100733.00
2023-02-13T03:39:14.723Z,100728.63
2023-02-13T03:41:22.008Z,100728.06
2023-02-13T03:43:25.314Z,100733.34
2023-02-13T03:45:54.278Z,100727.22
2023-02-13T03:47:59.580Z,100738.03
2023-02-13T03:50:09.176Z,100733.34
2023-02-13T03:52:22.521Z,100738.38
2023-02-13T03:55:12.605Z,100744.78
2023-02-13T03:57:38.937Z,100738.50
2023-02-13T03:59:43.946Z,100740.38
2023-02-13T04:02:01.588Z,100739.53
2023-02-13T04:04:23.186Z,100739.69
2023-02-13T04:07:00.017Z,100740.84
2023-02-13T04:09:01.977Z,100737.28
2023-02-13T04:11:23.728Z,100740.34
2023-02-13T04:13:34.719Z,100744.72
2023-02-13T04:15:45.923Z,100743.03
2023-02-13T04:17:56.835Z,100741.03
2023-02-13T04:19:58.462Z,100747.28
2023-02-13T04:22:01.783Z,100741.03
2023-02-13T04:24:03.749Z,100744.72
2023-02-13T04:26:14.946Z,100739.31
2023-02-13T04:28:17.233Z,100733.22
2023-02-13T04:30:18.818Z,100731.53
2023-02-13T04:32:20.373Z,100728.00
2023-02-13T04:34:22.009Z,100735.25
2023-02-13T04:36:23.619Z,100740.66
2023-02-13T04:38:25.316Z,100728.00
2023-02-13T04:40:26.899Z,100737.78
2023-02-13T04:42:28.840Z,100745.88
2023-02-13T04:44:30.400Z,100741.63
2023-02-13T04:46:31.950Z,100738.09
2023-02-13T04:48:33.753Z,100736.25
2023-02-13T04:50:35.551Z,100732.53
2023-02-13T04:52:37.357Z,100736.94
2023-02-13T04:54:38.795Z,100732.38
2023-02-13T04:56:40.273Z,100732.53
2023-02-13T04:58:42.141Z,100732.38
2023-02-13T05:00:43.735Z,100735.25
2023-02-13T05:02:45.397Z,100734.56
2023-02-13T05:04:46.891Z,100740.78
2023-02-13T05:06:48.389Z,100737.09
2023-02-13T05:08:49.943Z,100741.63
2023-02-13T05:10:51.474Z,100733.72
2023-02-13T05:12:53.321Z,100733.53
2023-02-13T05:14:54.725Z,100738.81
2023-02-13T05:16:56.235Z,100744.22
2023-02-13T05:18:57.828Z,100737.94
2023-02-13T05:21:18.138Z,100745.38
2023-02-13T05:23:22.971Z,100753.47
2023-02-13T05:25:24.491Z,100754.47
2023-02-13T05:27:26.014Z,100760.72
2023-02-13T05:29:27.737Z,100756.16
2023-02-13T05:31:29.630Z,100760.84
2023-02-13T05:33:31.398Z,100760.16
2023-02-13T05:35:32.949Z,100761.88
2023-02-13T05:37:34.575Z,100760.16
2023-02-13T05:39:36.223Z,100763.91
2023-02-13T05:41:37.741Z,100758.50
2023-02-13T05:43:40.350Z,100758.63
2023-02-13T05:45:41.897Z,100765.06
2023-02-13T05:47:50.456Z,100764.22
2023-02-13T05:49:52.089Z,100762.50
2023-02-13T05:51:53.710Z,100760.81
2023-02-13T05:53:58.595Z,100757.41
2023-02-13T05:56:00.184Z,100761.97
2023-02-13T05:58:01.704Z,100762.81
2023-02-13T06:00:04.491Z,100762.13
2023-02-13T06:02:07.805Z,100770.91
2023-02-13T06:04:09.538Z,100773.78
2023-02-13T06:06:11.338Z,100775.63
2023-02-13T06:08:12.978Z,100776.63
2023-02-13T06:10:14.498Z,100776.78
2023-02-13T06:12:16.203Z,100777.63
2023-02-13T06:14:17.812Z,100784.03
2023-02-13T06:16:19.446Z,100784.19
2023-02-13T06:18:21.186Z,100790.75
2023-02-13T06:20:23.163Z,100789.03
2023-02-13T06:22:39.639Z,100782.81
2023-02-13T06:24:41.492Z,100792.78
2023-02-13T06:26:43.123Z,100794.06
2023-02-13T06:28:44.790Z,100802.16
2023-02-13T06:30:47.340Z,100795.09
2023-02-13T06:32:49.043Z,100804.16
2023-02-13T06:34:50.592Z,100803.31
2023-02-13T06:36:52.812Z,100803.31
2023-02-13T06:38:57.401Z,100813.13
2023-02-13T06:41:02.109Z,100815.53
2023-02-13T06:43:06.531Z,100820.06
2023-02-13T06:45:08.976Z,100810.25
2023-02-13T06:47:11.040Z,100817.53
2023-02-13T06:49:12.686Z,100821.91
2023-02-13T06:51:14.282Z,100817.38
2023-02-13T06:53:15.829Z,100829.16
2023-02-13T06:55:18.345Z,100820.06
2023-02-13T06:57:19.902Z,100829.16
2023-02-13T06:59:21.549Z,100833.56
2023-02-13T07:01:23.353Z,100829.16
2023-02-13T07:03:24.976Z,100831.72
2023-02-13T07:05:26.905Z,100830.56
2023-02-13T07:07:28.639Z,100832.56
2023-02-13T07:09:31.719Z,100827.16
2023-02-13T07:11:33.459Z,100832.69
2023-02-13T07:13:35.228Z,100839.66
2023-02-13T07:15:37.958Z,100835.97
2023-02-13T07:17:39.617Z,100832.41
2023-02-13T07:19:41.283Z,100843.03
2023-02-13T07:21:42.840Z,100846.06
2023-02-13T07:23:44.595Z,100832.69
2023-02-13T07:25:46.272Z,100843.03
2023-02-13T07:27:47.768Z,100838.66
2023-02-13T07:29:49.346Z,100840.50
2023-02-13T07:31:50.856Z,100834.09
2023-02-13T07:33:52.458Z,100835.09
2023-02-13T07:35:53.976Z,100841.19
2023-02-13T07:37:55.933Z,100839.34
2023-02-13T07:39:57.707Z,100839.16
2023-02-13T07:41:59.377Z,100839.91
2023-02-13T07:44:09.182Z,100839.91
2023-02-13T07:46:11.075Z,100839.91
2023-02-13T07:48:12.662Z,100835.31
2023-02-13T07:50:14.355Z,100838.88
2023-02-13T07:52:15.900Z,100838.75
2023-02-13T07:54:17.521Z,100836.72
2023-02-13T07:56:19.001Z,100834.88
2023-02-13T07:58:21.360Z,100834.03
2023-02-13T08:00:23.546Z,100831.84
2023-02-13T08:02:28.458Z,100839.81
2023-02-13T08:04:30.101Z,100834.53
2023-02-13T08:06:31.853Z,100838.78
2023-02-13T08:08:34.001Z,100844.19
2023-02-13T08:10:54.407Z,100839.50
2023-02-13T08:12:56.060Z,100843.88
2023-02-13T08:14:57.689Z,100847.25
2023-02-13T08:17:00.896Z,100838.00
2023-02-13T08:19:02.387Z,100843.94
2023-02-13T08:21:04.231Z,100838.56
2023-02-13T08:23:08.048Z,100839.25
2023-02-13T08:25:09.655Z,100839.09
2023-02-13T08:27:13.525Z,100848.75
2023-02-13T08:29:14.962Z,100845.69
2023-02-13T08:31:16.655Z,100846.41
2023-02-13T08:33:18.266Z,100841.84
2023-02-13T08:35:23.973Z,100842.56
2023-02-13T08:37:25.561Z,100841.41
2023-02-13T08:39:36.468Z,100838.34
2023-02-13T08:41:38.140Z,100841.44
2023-02-13T08:43:42.149Z,100849.41
2023-02-13T08:45:45.116Z,100841.13
2023-02-13T08:47:46.698Z,100835.56
2023-02-13T08:49:48.534Z,100836.94
2023-02-13T08:51:50.923Z,100839.47
2023-02-13T08:53:52.697Z,100836.47
2023-02-13T08:55:55.900Z,100841.56
2023-02-13T08:58:04.937Z,100838.69
2023-02-13T09:00:07.319Z,100844.78
2023-02-13T09:02:11.604Z,100843.78
2023-02-13T09:04:18.217Z,100836.22
2023-02-13T09:06:19.848Z,100841.13
2023-02-13T09:08:21.360Z,100845.38
2023-02-13T09:10:23.604Z,100846.03
2023-02-13T09:12:25.447Z,100843.03
2023-02-13T09:14:27.199Z,100848.13
2023-02-13T09:16:29.030Z,100847.81
2023-02-13T09:18:33.311Z,100843.94
2023-02-13T09:20:36.411Z,100844.63
2023-02-13T09:22:38.111Z,100846.16
2023-02-13T09:24:39.808Z,100842.09
2023-02-13T09:26:41.453Z,100844.34
2023-02-13T09:28:43.812Z,100838.44
2023-02-13T09:30:46.063Z,100846.94
2023-02-13T09:32:47.775Z,100847.28
2023-02-13T09:34:49.316Z,100844.94
2023-02-13T09:36:54.452Z,100849.19
2023-02-13T09:38:57.478Z,100843.28
2023-02-13T09:41:12.216Z,100838.41
2023-02-13T09:43:20.667Z,100847.69
2023-02-13T09:45:22.803Z,100848.22
2023-02-13T09:47:41.562Z,100840.63
2023-02-13T09:49:54.122Z,100850.97
2023-02-13T09:51:57.510Z,100845.94
2023-02-13T09:54:09.164Z,100843.59
2023-02-13T09:56:16.018Z,100846.78
2023-02-13T09:58:53.699Z,100849.03
2023-02-13T10:01:00.886Z,100851.22
2023-02-13T10:03:13.364Z,100850.91
2023-02-13T10:05:50.187Z,100844.47
2023-02-13T10:08:20.904Z,100849.22
2023-02-13T10:10:47.697Z,100848.53
2023-02-13T10:13:08.495Z,100839.94
2023-02-13T10:15:24.728Z,100844.84
2023-02-13T10:17:33.140Z,100844.16
2023-02-13T10:19:44.296Z,100847.72
2023-02-13T10:22:14.527Z,100854.34
2023-02-13T10:24:29.880Z,100838.25
2023-02-13T10:26:42.850Z,100840.28
2023-02-13T10:29:15.802Z,100842.34
2023-02-13T10:31:22.866Z,100843.50
2023-02-13T10:33:38.742Z,100840.28
2023-02-13T10:35:43.399Z,100837.91
2023-02-13T10:37:51.183Z,100835.53
2023-02-13T10:39:56.521Z,100832.97
2023-02-13T10:42:23.004Z,100832.44
2023-02-13T10:44:53.740Z,100839.06
2023-02-13T10:47:17.265Z,100832.09
2023-02-13T10:49:46.215Z,100842.25
2023-02-13T10:52:01.571Z,100836.31
2023-02-13T10:54:27.849Z,100832.91
2023-02-13T10:56:51.920Z,100832.56
2023-02-13T10:59:03.068Z,100829.31
2023-02-13T11:01:22.315Z,100826.06
2023-02-13T11:03:26.496Z,100834.72
2023-02-13T11:05:39.704Z,100824.84
2023-02-13T11:07:42.489Z,100820.59
2023-02-13T11:09:47.252Z,100820.06
2023-02-13T11:11:50.124Z,100813.06
2023-02-13T11:14:13.306Z,100823.25
2023-02-13T11:16:15.181Z,100808.78
2023-02-13T11:18:21.964Z,100808.91
2023-02-13T11:20:37.761Z,100811.94
2023-02-13T11:22:42.656Z,100804.09
2023-02-13T11:24:53.773Z,100813.41
2023-02-13T11:27:13.617Z,100813.91
2023-02-13T11:29:24.026Z,100806.06
2023-02-13T11:31:30.213Z,100816.19
2023-02-13T11:33:37.836Z,100815.81
2023-02-13T11:35:39.533Z,100817.84
2023-02-13T11:37:47.678Z,100813.75
2023-02-13T11:39:51.647Z,100814.91
2023-02-13T11:41:55.027Z,100811.63
2023-02-13T11:44:04.193Z,100811.75
2023-02-13T11:46:11.178Z,100814.59
2023-02-13T11:48:23.305Z,100803.38
2023-02-13T11:50:36.187Z,100805.69
2023-02-13T11:52:37.946Z,100808.69
2023-02-13T11:54:43.543Z,100800.38
2023-02-13T11:57:06.135Z,100802.91
2023-02-13T11:59:13.682Z,100796.75
2023-02-13T12:01:21.389Z,100798.72
2023-02-13T12:03:31.689Z,100797.31
2023-02-13T12:05:38.683Z,100784.88
2023-02-13T12:07:41.797Z,100792.25
2023-02-13T12:09:45.489Z,100790.88
2023-02-13T12:11:53.524Z,100790.31
2023-02-13T12:13:55.775Z,100783.94
2023-02-13T12:16:05.424Z,100778.59
2023-02-13T12:18:30.067Z,100775.13
2023-02-13T12:20:41.611Z,100772.31
2023-02-13T12:23:06.189Z,100780.56
2023-02-13T12:25:39.377Z,100767.22
2023-02-13T12:27:59.990Z,100757.09
2023-02-13T12:30:23.519Z,100754.44
2023-02-13T12:32:47.961Z,100756.84
2023-02-13T12:35:08.147Z,100754.66
2023-02-13T12:37:30.544Z,100744.50
2023-02-13T12:39:36.684Z,100741.47
2023-02-13T12:41:53.554Z,100733.38
2023-02-13T12:44:49.993Z,100731.56
2023-02-13T12:47:14.731Z,100733.97
2023-02-13T12:49:37.041Z,100730.47
2023-02-13T12:51:49.590Z,100727.19
2023-02-13T12:53:53.842Z,100728.56
2023-02-13T12:56:13.717Z,100717.75
2023-02-13T12:58:38.640Z,100719.13
2023-02-13T13:00:45.994Z,100719.47
2023-02-13T13:03:24.144Z,100715.38
2023-02-13T13:05:45.204Z,100714.44
2023-02-13T13:08:18.368Z,100713.66
2023-02-13T13:10:58.956Z,100710.22
2023-02-13T13:13:22.578Z,100706.88
2023-02-13T13:15:39.464Z,100701.22
2023-02-13T13:18:15.968Z,100701.88
2023-02-13T13:20:36.523Z,100703.38
2023-02-13T13:22:51.185Z,100691.59
2023-02-13T13:25:22.475Z,100696.22
2023-02-13T13:27:28.310Z,100690.13
2023-02-13T13:29:47.866Z,100689.66
2023-02-13T13:31:59.898Z,100684.38
2023-02-13T13:34:05.919Z,100682.69
2023-02-13T13:36:34.662Z,100687.31
2023-02-13T13:38:39.377Z,100680.50
2023-02-13T13:41:12.107Z,100683.88
2023-02-13T13:43:39.445Z,100681.94
2023-02-13T13:45:50.297Z,100670.94
2023-02-13T13:48:37.629Z,100672.81
2023-02-13T13:50:41.834Z,100667.28
2023-02-13T13:53:06.045Z,100672.09
2023-02-13T13:55:48.073Z,100660.03
2023-02-13T13:58:00.197Z,100651.38
2023-02-13T14:00:12.763Z,100653.00
2023-02-13T14:02:18.842Z,100659.28
2023-02-13T14:04:32.898Z,100650.97
2023-02-13T14:06:46.306Z,100644.63
2023-02-13T14:09:09.647Z,100648.59
2023-02-13T14:11:46.963Z,100641.38
2023-02-13T14:13:50.404Z,100647.03
2023-02-13T14:15:52.727Z,100647.19
2023-02-13T14:17:55.559Z,100653.13
2023-02-13T14:19:58.358Z,100644.66
2023-02-13T14:22:18.661Z,100658.97
2023-02-13T14:24:22.482Z,100649.47
2023-02-13T14:26:32.077Z,100648.66
2023-02-13T14:28:33.873Z,100655.78
2023-02-13T14:30:38.263Z,100660.22
2023-02-13T14:32:41.254Z,100654.13
2023-02-13T14:34:50.929Z,100649.09
2023-02-13T14:37:10.946Z,100652.03
2023-02-13T14:39:27.609Z,100648.66
2023-02-13T14:41:51.150Z,100646.34
2023-02-13T14:43:53.930Z,100647.44
2023-02-13T14:46:25.360Z,100655.06
2023-02-13T14:48:42.641Z,100647.03
2023-02-13T14:50:51.801Z,100645.13
2023-02-13T14:52:55.227Z,100640.50
2023-02-13T14:55:05.452Z,100639.03
2023-02-13T14:57:17.282Z,100634.00
2023-02-13T14:59:31.491Z,100636.94
2023-02-13T15:01:44.438Z,100637.19
2023-02-13T15:03:55.105Z,100630.84
2023-02-13T15:06:01.216Z,100629.38
2023-02-13T15:08:14.165Z,100626.88
2023-02-13T15:10:41.194Z,100614.44
2023-02-13T15:12:43.102Z,100618.25
2023-02-13T15:14:47.252Z,100621.84
2023-02-13T15:16:55.041Z,100616.78
2023-02-13T15:18:57.078Z,100612.38
2023-02-13T15:21:01.209Z,100613.44
2023-02-13T15:23:06.655Z,100621.06
2023-02-13T15:25:09.357Z,100618.50
2023-02-13T15:27:28.823Z,100618.13
2023-02-13T15:29:53.887Z,100609.50
2023-02-13T15:31:55.849Z,100616.28
2023-02-13T15:33:58.816Z,100611.03
2023-02-13T15:36:02.897Z,100614.19
2023-02-13T15:38:30.804Z,100596.97
2023-02-13T15:40:41.071Z,100603.94
2023-02-13T15:42:42.654Z,100605.22
2023-02-13T15:44:47.714Z,100603.16
2023-02-13T15:46:53.873Z,100607.41
2023-02-13T15:48:58.915Z,100602.78
2023-02-13T15:51:01.397Z,100598.81
2023-02-13T15:53:05.965Z,100606.44
2023-02-13T15:55:19.791Z,100601.81
2023-02-13T15:57:23.476Z,100606.06
2023-02-13T15:59:36.599Z,100603.75
2023-02-13T16:01:44.555Z,100612.84
2023-02-13T16:03:49.678Z,100609.06
2023-02-13T16:05:51.537Z,100609.72
2023-02-13T16:07:58.864Z,100618.59
2023-02-13T16:10:26.150Z,100612.94
2023-02-13T16:12:28.720Z,100620.75
2023-02-13T16:14:38.330Z,100612.09
2023-02-13T16:16:56.539Z,100616.31
2023-02-13T16:18:58.237Z,100613.63
2023-02-13T16:21:00.618Z,100609.84
2023-02-13T16:23:14.162Z,100615.34
2023-02-13T16:25:26.500Z,100609.88
2023-02-13T16:27:28.608Z,100616.22
2023-02-13T16:29:30.292Z,100605.09
2023-02-13T16:31:31.990Z,100616.88
2023-02-13T16:33:43.071Z,100616.25
2023-02-13T16:36:09.054Z,100611.63
2023-02-13T16:38:23.231Z,100614.59
2023-02-13T16:40:27.810Z,100611.66
2023-02-13T16:42:32.698Z,100611.44
2023-02-13T16:44:34.374Z,100615.00
2023-02-13T16:46:53.556Z,100614.19
2023-02-13T16:49:13.840Z,100614.19
2023-02-13T16:51:24.843Z,100623.44
2023-02-13T16:53:27.682Z,100620.91
2023-02-13T16:55:31.757Z,100618.19
2023-02-13T16:57:36.136Z,100615.44
2023-02-13T16:59:56.638Z,100619.41
2023-02-13T17:02:15.977Z,100620.84
2023-02-13T17:04:28.398Z,100620.16
2023-02-13T17:06:30.065Z,100630.47
2023-02-13T17:08:32.346Z,100637.97
2023-02-13T17:10:38.860Z,100632.91
2023-02-13T17:12:40.513Z,100638.75
2023-02-13T17:14:43.047Z,100644.38
2023-02-13T17:16:44.782Z,100651.91
2023-02-13T17:18:46.540Z,100653.13
2023-02-13T17:20:51.258Z,100651.41
2023-02-13T17:22:55.318Z,100649.03
2023-02-13T17:24:58.697Z,100644.75
2023-02-13T17:27:00.319Z,100645.13
2023-02-13T17:29:03.725Z,100656.41
2023-02-13T17:31:11.178Z,100646.88
2023-02-13T17:33:27.532Z,100644.66
2023-02-13T17:35:31.581Z,100645.66
2023-02-13T17:37:36.242Z,100642.22
2023-02-13T17:39:40.515Z,100641.72
2023-02-13T17:41:42.963Z,100653.75
2023-02-13T17:43:48.487Z,100641.13
2023-02-13T17:45:51.416Z,100641.44
2023-02-13T17:47:53.346Z,100642.41
2023-02-13T17:50:01.987Z,100641.69
2023-02-13T17:52:06.814Z,100638.06
2023-02-13T17:54:12.608Z,100636.50
2023-02-13T17:56:20.283Z,100643.28
2023-02-13T17:58:22.109Z,100645.09
2023-02-13T18:00:26.992Z,100643.13
2023-02-13T18:02:28.742Z,100653.94
2023-02-13T18:04:30.493Z,100657.38
2023-02-13T18:06:33.294Z,100666.28
2023-02-13T18:08:35.132Z,100665.56
2023-02-13T18:10:37.492Z,100659.00
2023-02-13T18:12:39.596Z,100670.63
2023-02-13T18:14:41.938Z,100663.41
2023-02-13T18:16:44.296Z,100664.34
2023-02-13T18:18:54.871Z,100666.13
2023-02-13T18:21:00.099Z,100666.88
2023-02-13T18:23:01.998Z,100667.81
2023-02-13T18:25:04.293Z,100681.25
2023-02-13T18:27:11.320Z,100676.56
2023-02-13T18:29:13.309Z,100676.44
2023-02-13T18:31:16.825Z,100675.28
2023-02-13T18:33:18.681Z,100680.63
2023-02-13T18:35:21.231Z,100671.31
2023-02-13T18:37:22.966Z,100669.34
2023-02-13T18:39:24.435Z,100667.34
2023-02-13T18:41:27.296Z,100678.09
2023-02-13T18:43:28.967Z,100675.91
2023-02-13T18:45:31.421Z,100673.94
2023-02-13T18:47:32.960Z,100672.59
2023-02-13T18:49:35.314Z,100675.84
2023-02-13T18:51:37.058Z,100678.06
2023-02-13T18:53:38.839Z,100676.25
2023-02-13T18:55:40.611Z,100676.81
2023-02-13T18:57:43.649Z,100674.44
2023-02-13T18:59:48.407Z,100668.03
2023-02-13T19:01:50.568Z,100668.94
2023-02-13T19:03:53.108Z,100682.84
2023-02-13T19:05:55.537Z,100688.34
2023-02-13T19:08:02.051Z,100680.72
2023-02-13T19:10:07.058Z,100677.03
2023-02-13T19:12:09.008Z,100675.69
2023-02-13T19:14:12.632Z,100672.47
2023-02-13T19:16:19.291Z,100664.22
2023-02-13T19:18:20.885Z,100664.75
2023-02-13T19:20:29.363Z,100665.44
2023-02-13T19:22:34.292Z,100658.69
2023-02-13T19:24:36.152Z,100670.03
2023-02-13T19:26:38.104Z,100665.00
2023-02-13T19:28:39.801Z,100671.09
2023-02-13T19:30:41.441Z,100678.91
2023-02-13T19:32:43.039Z,100677.19
2023-02-13T19:34:44.912Z,100675.00
2023-02-13T19:36:46.647Z,100681.97
2023-02-13T19:38:54.238Z,100686.91
2023-02-13T19:40:56.865Z,100680.97
2023-02-13T19:42:58.792Z,100688.75
2023-02-13T19:45:00.342Z,100690.13
2023-02-13T19:47:02.010Z,100681.69
2023-02-13T19:49:04.597Z,100684.06
2023-02-13T19:51:11.273Z,100685.56
2023-02-13T19:53:14.090Z,100681.34
2023-02-13T19:55:16.116Z,100684.38
2023-02-13T19:57:18.468Z,100683.06
2023-02-13T19:59:29.310Z,100685.06
2023-02-13T20:01:31.700Z,100682.00
2023-02-13T20:03:33.434Z,100682.38
2023-02-13T20:05:42.381Z,100686.41
2023-02-13T20:07:44.045Z,100677.63
2023-02-13T20:09:45.658Z,100686.25
2023-02-13T20:11:47.574Z,100691.44
2023-02-13T20:13:55.641Z,100683.50
2023-02-13T20:16:05.559Z,100681.31
2023-02-13T20:18:09.876Z,100687.06
2023-02-13T20:20:12.453Z,100681.97
2023-02-13T20:22:16.630Z,100682.31
2023-02-13T20:24:18.352Z,100679.25
2023-02-13T20:26:20.556Z,100679.63
2023-02-13T20:28:23.339Z,100676.19
2023-02-13T20:30:25.262Z,100677.56
2023-02-13T20:32:27.285Z,100686.00
2023-02-13T20:34:37.639Z,100679.25
2023-02-13T20:36:45.875Z,100685.84
2023-02-13T20:38:47.691Z,100680.06
2023-02-13T20:40:52.282Z,100672.47
2023-02-13T20:42:53.781Z,100681.56
2023-02-13T20:44:57.439Z,100684.59
2023-02-13T20:47:00.218Z,100690.88
2023-02-13T20:49:02.814Z,100678.84
2023-02-13T20:51:07.572Z,100678.69
2023-02-13T20:53:10.044Z,100678.69
2023-02-13T20:55:11.756Z,100674.63
2023-02-13T20:57:14.620Z,100672.59
2023-02-13T20:59:17.209Z,100670.56
2023-02-13T21:01:30.717Z,100672.28
2023-02-13T21:03:32.252Z,100683.78
2023-02-13T21:05:33.844Z,100685.47
2023-02-13T21:07:35.529Z,100690.72
2023-02-13T21:09:37.597Z,100693.41
2023-02-13T21:11:42.390Z,100690.72
2023-02-13T21:13:48.444Z,100702.38
2023-02-13T21:15:53.605Z,100699.50
2023-02-13T21:17:55.567Z,100696.97
2023-02-13T21:19:57.243Z,100710.31
2023-02-13T21:22:11.127Z,100688.69
2023-02-13T21:24:15.988Z,100691.38
2023-02-13T21:26:21.675Z,100690.38
2023-02-13T21:28:23.481Z,100685.97
2023-02-13T21:30:28.045Z,100690.38
2023-02-13T21:32:29.885Z,100692.41
2023-02-13T21:34:31.836Z,100687.00
2023-02-13T21:36:35.893Z,100695.97
2023-02-13T21:38:39.208Z,100694.94
2023-02-13T21:40:41.968Z,100693.28
2023-02-13T21:42:43.798Z,100684.97
2023-02-13T21:44:48.389Z,100686.81
2023-02-13T21:46:50.712Z,100693.28
2023-02-13T21:48:56.782Z,100691.25
2023-02-13T21:50:59.053Z,100694.94
2023-02-13T21:53:03.940Z,100689.53
2023-02-13T21:55:07.402Z,100687.50
2023-02-13T21:57:10.454Z,100682.94
2023-02-13T21:59:16.474Z,100690.22
2023-02-13T22:01:26.403Z,100682.09
2023-02-13T22:03:33.011Z,100686.69
2023-02-13T22:05:34.590Z,100691.25
2023-02-13T22:07:56.188Z,100693.94
2023-02-13T22:09:57.722Z,100690.38
2023-02-13T22:11:59.478Z,100691.25
2023-02-13T22:14:10.834Z,100689.53
2023-02-13T22:16:14.903Z,100696.97
2023-02-13T22:18:16.554Z,100690.72
2023-02-13T22:20:18.859Z,100693.09
2023-02-13T22:22:20.655Z,100684.97
2023-02-13T22:24:22.217Z,100690.06
2023-02-13T22:26:32.507Z,100689.22
2023-02-13T22:28:34.483Z,100678.91
2023-02-13T22:30:36.423Z,100689.22
2023-02-13T22:32:39.750Z,100687.03
2023-02-13T22:34:41.402Z,100683.47
2023-02-13T22:36:45.439Z,100687.72
2023-02-13T22:38:47.135Z,100684.84
2023-02-13T22:40:48.721Z,100694.50
2023-02-13T22:42:52.469Z,100682.66
2023-02-13T22:44:54.178Z,100681.31
2023-02-13T22:46:55.835Z,100685.88
2023-02-13T22:49:01.485Z,100684.69
2023-02-13T22:51:10.670Z,100690.09
2023-02-13T22:53:12.462Z,100688.75
2023-02-13T22:55:14.183Z,100686.41
2023-02-13T22:57:17.290Z,100686.09
2023-02-13T22:59:21.657Z,100673.91
2023-02-13T23:01:25.000Z,100671.88
2023-02-13T23:03:32.615Z,100666.47
2023-02-13T23:05:39.052Z,100669.84
2023-02-13T23:07:42.973Z,100670.19
2023-02-13T23:09:45.749Z,100664.59
2023-02-13T23:12:06.009Z,100669.00
2023-02-13T23:14:08.183Z,100669.84
2023-02-13T23:16:13.852Z,100670.69
2023-02-13T23:18:15.578Z,100678.47
2023-02-13T23:20:18.728Z,100666.44
2023-02-13T23:22:20.377Z,100670.50
2023-02-13T23:24:21.949Z,100668.13
2023-02-13T23:26:23.442Z,100672.03
2023-02-13T23:28:25.062Z,100670.00
2023-02-13T23:30:30.087Z,100673.38
2023-02-13T23:32:32.253Z,100669.66
2023-02-13T23:34:37.044Z,100675.94
2023-02-13T23:36:38.626Z,100672.84
2023-02-13T23:38:40.300Z,100675.41
2023-02-13T23:40:41.921Z,100667.75
2023-02-13T23:42:43.927Z,100668.47
2023-02-13T23:44:45.482Z,100672.69
2023-02-13T23:46:48.355Z,100672.69
2023-02-13T23:48:49.959Z,100679.63
2023-02-13T23:50:53.158Z,100683.00
2023-02-13T23:52:54.710Z,100685.53
2023-02-13T23:54:59.008Z,100676.41
2023-02-13T23:57:00.786Z,100681.63
2023-02-13T23:59:02.570Z,100677.06
